Time;durP1;ratioP1;P1;durP2;ratioP2;P2;SDS_P1;SDS_P2;PMS_P1;PMS_P2;Temp;Humidity;BMP_temperature;BMP_pressure;BME280_temperature;BME280_humidity;BME280_pressure;Samples;Min_cycle;Max_cycle;Signal;HPM_P1;HPM_P2
2022/11/19 00:00:45;;;;;;;;;;;22.40;94.20;;;;;;5021936;28;20385;-71
2022/11/19 00:03:12;;;;;;;;;;;22.60;94.20;;;;;;5019131;28;19936;-71
2022/11/19 00:05:40;;;;;;;;;;;22.80;93.90;;;;;;5005583;28;19913;-70
2022/11/19 00:08:07;;;;;;;;;;;22.80;94.00;;;;;;5009066;28;19921;-71
2022/11/19 00:10:37;;;;;;;;;;;22.90;94.20;;;;;;5022369;28;20012;-70
2022/11/19 00:13:05;;;;;;;;;;;22.90;93.80;;;;;;5018637;28;20405;-69
2022/11/19 00:15:35;;;;;;;;;;;22.90;93.60;;;;;;5021882;28;19913;-70
2022/11/19 00:18:02;;;;;;;;;;;22.90;93.90;;;;;;5017576;28;20000;-72
2022/11/19 00:20:29;;;;;;;;;;;23.10;93.60;;;;;;5021809;28;20000;-70
2022/11/19 00:22:56;;;;;;;;;;;23.10;93.80;;;;;;5025097;28;19962;-71
2022/11/19 00:25:25;;;;;;;;;;;22.90;94.00;;;;;;5040015;28;19967;-72
2022/11/19 00:27:51;;;;;;;;;;;22.90;94.10;;;;;;5024747;28;20294;-69
2022/11/19 00:30:19;;;;;;;;;;;23.00;94.30;;;;;;5019808;28;19913;-69
2022/11/19 00:32:46;;;;;;;;;;;23.00;93.90;;;;;;5018205;28;19919;-72
2022/11/19 00:35:12;;;;;;;;;;;23.10;94.20;;;;;;5018096;28;19913;-70
2022/11/19 00:37:39;;;;;;;;;;;22.90;94.50;;;;;;5021216;28;19971;-71
2022/11/19 00:40:07;;;;;;;;;;;22.70;95.00;;;;;;5016340;28;19950;-70
2022/11/19 00:42:34;;;;;;;;;;;22.80;94.60;;;;;;5021365;28;20014;-69
2022/11/19 00:45:01;;;;;;;;;;;22.80;94.70;;;;;;5015965;28;20014;-69
2022/11/19 00:47:27;;;;;;;;;;;23.00;94.80;;;;;;5018621;28;19918;-72
2022/11/19 00:49:54;;;;;;;;;;;23.30;94.00;;;;;;5018676;28;19933;-69
2022/11/19 00:52:21;;;;;;;;;;;23.30;93.70;;;;;;5016179;28;19996;-69
2022/11/19 00:54:47;;;;;;;;;;;23.30;93.70;;;;;;5018955;28;20008;-70
2022/11/19 00:57:14;;;;;;;;;;;23.30;93.60;;;;;;5017028;28;19909;-69
2022/11/19 00:59:40;;;;;;;;;;;23.40;93.50;;;;;;5020631;28;19941;-72
2022/11/19 01:02:07;;;;;;;;;;;23.40;93.70;;;;;;5018501;28;20330;-70
2022/11/19 01:04:34;;;;;;;;;;;23.50;92.80;;;;;;5021029;28;19909;-68
2022/11/19 01:07:00;;;;;;;;;;;23.60;92.80;;;;;;5016941;28;19968;-71
2022/11/19 01:09:28;;;;;;;;;;;23.70;93.00;;;;;;5018060;28;20385;-68
2022/11/19 01:11:54;;;;;;;;;;;23.70;92.80;;;;;;5018545;28;19983;-69
2022/11/19 01:14:21;;;;;;;;;;;23.90;92.70;;;;;;5016969;28;19913;-70
2022/11/19 01:16:48;;;;;;;;;;;23.90;92.40;;;;;;5019260;28;20438;-71
2022/11/19 01:19:15;;;;;;;;;;;23.90;92.50;;;;;;5017198;28;19924;-71
2022/11/19 01:21:42;;;;;;;;;;;24.00;92.40;;;;;;5020529;28;19913;-71
2022/11/19 01:24:08;;;;;;;;;;;24.10;92.10;;;;;;5017648;28;20417;-69
2022/11/19 01:26:35;;;;;;;;;;;24.30;92.10;;;;;;5025731;28;20003;-70
2022/11/19 01:29:02;;;;;;;;;;;24.40;91.90;;;;;;5041008;28;19920;-69
2022/11/19 01:31:29;;;;;;;;;;;24.40;92.20;;;;;;5023032;28;19989;-69
2022/11/19 01:33:56;;;;;;;;;;;24.10;91.90;;;;;;5001935;28;20369;-70
2022/11/19 01:36:26;;;;;;;;;;;23.80;91.90;;;;;;5018458;28;20258;-71
2022/11/19 01:38:53;;;;;;;;;;;23.70;92.90;;;;;;5020132;28;19913;-67
2022/11/19 01:41:21;;;;;;;;;;;23.70;93.10;;;;;;5019352;28;20381;-68
2022/11/19 01:43:50;;;;;;;;;;;23.90;92.80;;;;;;5015881;28;19975;-71
2022/11/19 01:46:18;;;;;;;;;;;23.80;93.10;;;;;;5016009;28;20293;-73
2022/11/19 01:48:47;;;;;;;;;;;23.90;93.10;;;;;;5010557;28;19909;-73
2022/11/19 01:51:21;;;;;;;;;;;24.10;93.40;;;;;;5000986;28;19919;-73
2022/11/19 01:53:49;;;;;;;;;;;24.30;92.70;;;;;;5015276;28;19909;-70
2022/11/19 01:56:16;;;;;;;;;;;24.40;92.40;;;;;;5018115;28;19916;-73
2022/11/19 01:58:45;;;;;;;;;;;24.30;92.60;;;;;;5017519;28;19909;-73
2022/11/19 02:01:11;;;;;;;;;;;24.40;92.70;;;;;;5018771;28;19920;-74
2022/11/19 02:03:38;;;;;;;;;;;24.60;92.10;;;;;;5018060;28;19917;-71
2022/11/19 02:06:08;;;;;;;;;;;24.60;92.50;;;;;;5018491;28;19909;-72
2022/11/19 02:08:37;;;;;;;;;;;24.60;92.20;;;;;;5017028;28;19909;-73
2022/11/19 02:11:21;;;;;;;;;;;24.70;92.10;;;;;;5018255;28;19913;-73
2022/11/19 02:13:57;;;;;;;;;;;24.70;92.30;;;;;;5016437;28;19909;-73
2022/11/19 02:16:33;;;;;;;;;;;24.80;92.10;;;;;;5013700;28;20285;-75
2022/11/19 02:19:09;;;;;;;;;;;24.70;91.90;;;;;;5000198;28;19913;-75
2022/11/19 02:21:48;;;;;;;;;;;24.70;92.20;;;;;;5017048;28;19924;-73
2022/11/19 02:24:33;;;;;;;;;;;24.90;91.70;;;;;;4999331;28;19920;-75
2022/11/19 02:27:17;;;;;;;;;;;25.00;91.40;;;;;;5017176;28;19917;-73
2022/11/19 02:30:01;;;;;;;;;;;25.10;91.60;;;;;;5010156;28;20354;-74
2022/11/19 02:32:33;;;;;;;;;;;25.00;90.60;;;;;;5008829;28;19913;-72
2022/11/19 02:35:11;;;;;;;;;;;25.30;90.40;;;;;;5017556;28;20417;-74
2022/11/19 02:37:55;;;;;;;;;;;25.50;90.80;;;;;;5016800;28;19919;-74
2022/11/19 02:40:24;;;;;;;;;;;26.00;90.10;;;;;;5017676;28;19960;-74
2022/11/19 02:43:01;;;;;;;;;;;26.20;88.30;;;;;;5016617;28;19920;-77
2022/11/19 02:45:36;;;;;;;;;;;26.50;87.60;;;;;;5015581;28;20393;-72
2022/11/19 02:48:07;;;;;;;;;;;26.60;86.70;;;;;;5017851;28;19929;-75
2022/11/19 02:50:36;;;;;;;;;;;26.60;86.50;;;;;;5000574;28;19956;-75
2022/11/19 02:53:03;;;;;;;;;;;27.10;86.50;;;;;;5000302;28;20251;-74
2022/11/19 02:55:30;;;;;;;;;;;27.10;85.10;;;;;;5019225;28;19920;-72
2022/11/19 02:58:00;;;;;;;;;;;27.00;85.40;;;;;;5016280;28;20362;-73
2022/11/19 03:06:02;;;;;;;;;;;27.20;84.70;;;;;;5016987;28;20774;-72
2022/11/19 03:08:29;;;;;;;;;;;27.70;84.10;;;;;;5018147;28;19939;-74
2022/11/19 03:11:18;;;;;;;;;;;27.60;83.20;;;;;;5015550;28;20505;-73
2022/11/19 03:16:41;;;;;;;;;;;26.40;86.60;;;;;;5018825;28;19963;-75
2022/11/19 03:19:10;;;;;;;;;;;26.20;88.10;;;;;;5018169;28;19909;-73
2022/11/19 03:21:52;;;;;;;;;;;27.20;85.80;;;;;;5020253;28;20004;-74
2022/11/19 03:24:30;;;;;;;;;;;27.90;82.90;;;;;;5022094;28;19916;-72
2022/11/19 03:27:14;;;;;;;;;;;28.60;82.00;;;;;;5020806;28;20258;-73
2022/11/19 03:29:43;;;;;;;;;;;28.90;80.50;;;;;;5021095;28;19909;-73
2022/11/19 03:32:13;;;;;;;;;;;29.20;79.60;;;;;;5021610;28;19920;-72
2022/11/19 03:34:41;;;;;;;;;;;29.60;79.70;;;;;;5021721;28;19909;-75
2022/11/19 03:37:08;;;;;;;;;;;29.90;78.80;;;;;;5021255;28;20004;-72
2022/11/19 03:39:35;;;;;;;;;;;30.30;77.40;;;;;;5021808;28;20032;-74
2022/11/19 03:42:04;;;;;;;;;;;30.60;76.70;;;;;;5019524;28;20392;-71
2022/11/19 03:44:37;;;;;;;;;;;31.00;76.40;;;;;;5020946;28;20067;-72
2022/11/19 03:47:08;;;;;;;;;;;30.60;75.00;;;;;;5022538;28;20626;-70
2022/11/19 03:49:38;;;;;;;;;;;30.50;76.90;;;;;;5020161;28;19913;-75
2022/11/19 03:52:10;;;;;;;;;;;30.60;75.60;;;;;;5018421;28;19917;-75
2022/11/19 03:54:37;;;;;;;;;;;31.10;74.40;;;;;;5021311;28;20002;-69
2022/11/19 03:57:05;;;;;;;;;;;31.10;75.50;;;;;;5000975;28;19913;-69
2022/11/19 03:59:32;;;;;;;;;;;31.80;73.40;;;;;;5021485;28;19913;-72
2022/11/19 04:02:01;;;;;;;;;;;31.70;72.80;;;;;;5020051;28;20281;-74
2022/11/19 04:04:37;;;;;;;;;;;31.50;73.70;;;;;;5021571;28;19909;-71
2022/11/19 04:07:07;;;;;;;;;;;32.60;72.80;;;;;;5019679;28;20406;-73
2022/11/19 04:09:34;;;;;;;;;;;34.00;69.40;;;;;;5020783;28;19917;-72
2022/11/19 04:12:01;;;;;;;;;;;34.10;68.30;;;;;;5019646;28;19932;-70
2022/11/19 04:14:27;;;;;;;;;;;33.70;68.60;;;;;;5021125;28;19909;-69
2022/11/19 04:16:54;;;;;;;;;;;32.80;69.00;;;;;;5018034;28;19957;-70
2022/11/19 04:19:21;;;;;;;;;;;32.60;69.90;;;;;;5021174;28;20452;-70
2022/11/19 04:21:47;;;;;;;;;;;31.40;71.20;;;;;;5011530;28;19920;-73
2022/11/19 04:24:14;;;;;;;;;;;30.90;71.80;;;;;;5018178;28;19917;-72
2022/11/19 04:26:41;;;;;;;;;;;29.70;75.10;;;;;;5019193;28;19921;-72
2022/11/19 04:29:11;;;;;;;;;;;29.40;75.30;;;;;;5017392;28;20408;-76
2022/11/19 04:31:37;;;;;;;;;;;30.00;75.10;;;;;;5018723;28;19928;-71
2022/11/19 04:34:04;;;;;;;;;;;30.30;73.20;;;;;;5009652;28;19925;-71
2022/11/19 04:36:31;;;;;;;;;;;30.50;73.40;;;;;;5018935;28;19913;-69
2022/11/19 04:38:58;;;;;;;;;;;30.30;74.10;;;;;;5018371;28;19909;-70
2022/11/19 04:41:24;;;;;;;;;;;30.80;73.30;;;;;;5017995;28;19925;-69
2022/11/19 04:43:51;;;;;;;;;;;30.60;72.30;;;;;;5019499;28;19920;-72
2022/11/19 04:46:21;;;;;;;;;;;30.40;73.60;;;;;;5018278;28;22049;-66
2022/11/19 04:48:48;;;;;;;;;;;30.40;72.90;;;;;;5019751;28;20000;-71
2022/11/19 04:51:15;;;;;;;;;;;30.30;73.80;;;;;;5016883;28;19914;-72
2022/11/19 04:53:41;;;;;;;;;;;30.20;73.80;;;;;;5012108;28;19996;-72
2022/11/19 04:56:08;;;;;;;;;;;30.70;73.20;;;;;;4999758;28;19963;-74
2022/11/19 04:58:35;;;;;;;;;;;31.10;72.40;;;;;;4999629;28;20028;-72
2022/11/19 05:01:01;;;;;;;;;;;30.90;72.80;;;;;;5013580;28;20036;-76
2022/11/19 05:03:28;;;;;;;;;;;31.80;71.30;;;;;;4985441;28;20325;-74
2022/11/19 05:05:55;;;;;;;;;;;31.50;70.90;;;;;;5020457;28;19955;-72
2022/11/19 05:08:22;;;;;;;;;;;30.70;73.30;;;;;;5011876;28;19948;-70
2022/11/19 05:10:48;;;;;;;;;;;30.20;74.00;;;;;;5013941;28;20381;-78
2022/11/19 05:13:15;;;;;;;;;;;29.40;75.10;;;;;;5016899;28;20380;-70
2022/11/19 05:15:42;;;;;;;;;;;29.00;75.50;;;;;;5019508;28;19909;-68
2022/11/19 05:18:08;;;;;;;;;;;28.60;77.10;;;;;;5019139;28;19964;-69
2022/11/19 05:20:35;;;;;;;;;;;27.60;79.40;;;;;;5018232;28;19914;-69
2022/11/19 05:23:02;;;;;;;;;;;27.40;79.90;;;;;;5018546;28;19917;-69
2022/11/19 05:25:29;;;;;;;;;;;28.20;79.20;;;;;;5018383;28;19914;-73
2022/11/19 05:27:55;;;;;;;;;;;29.40;75.90;;;;;;5002058;28;19921;-74
2022/11/19 05:30:22;;;;;;;;;;;29.90;74.70;;;;;;5016444;28;19967;-71
2022/11/19 05:32:49;;;;;;;;;;;29.80;74.90;;;;;;5019906;28;19923;-70
2022/11/19 05:35:16;;;;;;;;;;;29.80;75.00;;;;;;5016906;28;19913;-69
2022/11/19 05:37:42;;;;;;;;;;;30.20;74.50;;;;;;5017889;28;20338;-72
2022/11/19 05:40:09;;;;;;;;;;;30.10;74.90;;;;;;5014655;28;19921;-71
2022/11/19 05:42:36;;;;;;;;;;;30.40;74.60;;;;;;5019412;28;20263;-71
2022/11/19 05:45:03;;;;;;;;;;;30.30;73.70;;;;;;5017572;28;19913;-73
2022/11/19 05:47:30;;;;;;;;;;;29.80;74.40;;;;;;5017531;28;19976;-73
2022/11/19 05:49:57;;;;;;;;;;;29.30;76.50;;;;;;5015757;28;20814;-72
2022/11/19 05:52:23;;;;;;;;;;;29.60;77.00;;;;;;5014423;28;19913;-72
2022/11/19 05:54:50;;;;;;;;;;;29.70;76.10;;;;;;5019712;28;19917;-70
2022/11/19 05:57:16;;;;;;;;;;;29.10;76.90;;;;;;5015987;28;19923;-70
2022/11/19 05:59:43;;;;;;;;;;;28.80;78.20;;;;;;5016251;28;19927;-75
2022/11/19 06:02:10;;;;;;;;;;;28.40;78.60;;;;;;5014760;28;19913;-76
2022/11/19 06:04:36;;;;;;;;;;;27.90;80.40;;;;;;5016759;28;19913;-71
2022/11/19 06:07:03;;;;;;;;;;;27.80;80.30;;;;;;5019678;28;19929;-74
2022/11/19 06:09:30;;;;;;;;;;;27.10;82.30;;;;;;5012517;28;20153;-69
2022/11/19 06:11:56;;;;;;;;;;;26.40;83.90;;;;;;5016451;28;19997;-71
2022/11/19 06:14:24;;;;;;;;;;;26.00;86.70;;;;;;5013291;28;19913;-72
2022/11/19 06:16:52;;;;;;;;;;;25.90;86.60;;;;;;5011395;28;19924;-68
2022/11/19 06:19:19;;;;;;;;;;;25.90;87.40;;;;;;5015270;28;19971;-68
2022/11/19 06:21:46;;;;;;;;;;;25.90;87.00;;;;;;5016288;28;19913;-72
2022/11/19 06:24:13;;;;;;;;;;;25.70;88.30;;;;;;5007698;28;20350;-69
2022/11/19 06:26:40;;;;;;;;;;;25.30;88.90;;;;;;5014594;28;20400;-68
2022/11/19 06:29:07;;;;;;;;;;;25.00;90.00;;;;;;5017157;28;19913;-69
2022/11/19 06:31:33;;;;;;;;;;;25.10;90.20;;;;;;5016618;28;19917;-69
2022/11/19 06:34:00;;;;;;;;;;;25.10;90.30;;;;;;5017129;28;19921;-71
2022/11/19 06:36:27;;;;;;;;;;;25.30;90.20;;;;;;5013456;28;19913;-71
2022/11/19 06:38:53;;;;;;;;;;;25.20;90.30;;;;;;5016722;28;20003;-73
2022/11/19 06:41:21;;;;;;;;;;;25.40;90.30;;;;;;5013803;28;19921;-73
2022/11/19 06:43:47;;;;;;;;;;;25.10;90.50;;;;;;4997548;28;20643;-76
2022/11/19 06:46:14;;;;;;;;;;;24.90;90.50;;;;;;5011063;28;19949;-74
2022/11/19 06:48:41;;;;;;;;;;;24.50;90.70;;;;;;5013087;28;19925;-72
2022/11/19 06:51:08;;;;;;;;;;;24.30;91.40;;;;;;5008762;28;19976;-72
2022/11/19 06:53:34;;;;;;;;;;;24.30;91.60;;;;;;5011522;28;19913;-72
2022/11/19 06:56:03;;;;;;;;;;;24.10;91.80;;;;;;5009917;28;20317;-75
2022/11/19 06:58:30;;;;;;;;;;;24.00;92.20;;;;;;5019160;28;19915;-74
2022/11/19 07:00:56;;;;;;;;;;;24.00;92.60;;;;;;5002469;28;19924;-74
2022/11/19 07:03:23;;;;;;;;;;;24.10;92.80;;;;;;5017840;28;20384;-75
2022/11/19 07:05:54;;;;;;;;;;;24.20;92.60;;;;;;5019128;28;19947;-75
2022/11/19 07:08:21;;;;;;;;;;;24.50;92.30;;;;;;5010523;28;19921;-75
2022/11/19 07:10:47;;;;;;;;;;;24.30;92.20;;;;;;5017802;28;19921;-72
2022/11/19 07:13:14;;;;;;;;;;;24.20;92.70;;;;;;5008629;28;20307;-75
2022/11/19 07:15:41;;;;;;;;;;;24.10;92.20;;;;;;5018735;28;19920;-71
2022/11/19 07:18:08;;;;;;;;;;;23.90;92.80;;;;;;5019278;28;19924;-72
2022/11/19 07:20:35;;;;;;;;;;;23.90;92.90;;;;;;5000611;28;20517;-72
2022/11/19 07:23:01;;;;;;;;;;;23.90;93.00;;;;;;5020241;28;20390;-71
2022/11/19 07:25:28;;;;;;;;;;;23.80;93.00;;;;;;5020371;28;20055;-73
2022/11/19 07:27:55;;;;;;;;;;;23.60;93.50;;;;;;5018496;28;20447;-75
2022/11/19 07:30:21;;;;;;;;;;;23.40;94.10;;;;;;5018852;28;20012;-79
2022/11/19 07:32:48;;;;;;;;;;;23.20;94.60;;;;;;5010199;28;19967;-73
2022/11/19 07:35:15;;;;;;;;;;;23.10;95.20;;;;;;5007155;28;19920;-80
2022/11/19 07:37:41;;;;;;;;;;;23.00;95.10;;;;;;5010921;28;20741;-70
2022/11/19 07:40:09;;;;;;;;;;;23.00;95.30;;;;;;5015832;28;19925;-78
2022/11/19 07:42:48;;;;;;;;;;;23.00;95.70;;;;;;5013288;28;20258;-73
2022/11/19 07:45:15;;;;;;;;;;;22.90;95.70;;;;;;5019200;28;19960;-79
2022/11/19 07:47:42;;;;;;;;;;;22.70;95.80;;;;;;5016705;28;19931;-72
2022/11/19 07:50:09;;;;;;;;;;;22.50;95.90;;;;;;5020964;28;19913;-71
2022/11/19 07:52:35;;;;;;;;;;;22.30;96.60;;;;;;5010388;28;21365;-71
2022/11/19 07:55:02;;;;;;;;;;;22.20;96.80;;;;;;5013342;28;20040;-72
2022/11/19 07:57:29;;;;;;;;;;;22.20;96.80;;;;;;5015762;28;19913;-71
2022/11/19 07:59:55;;;;;;;;;;;22.10;97.10;;;;;;5017034;28;19913;-71
2022/11/19 08:02:22;;;;;;;;;;;22.00;97.30;;;;;;5020127;28;20743;-70
2022/11/19 08:04:48;;;;;;;;;;;22.10;97.50;;;;;;5016189;28;19913;-69
2022/11/19 08:07:15;;;;;;;;;;;22.00;97.30;;;;;;5019411;28;19972;-70
2022/11/19 08:09:42;;;;;;;;;;;22.00;97.50;;;;;;5012883;28;20000;-69
2022/11/19 08:12:08;;;;;;;;;;;21.90;97.70;;;;;;5019788;28;19919;-72
2022/11/19 08:14:35;;;;;;;;;;;21.90;97.50;;;;;;5018337;28;20007;-71
2022/11/19 08:19:46;;;;;;;;;;;21.70;97.50;;;;;;5017296;28;20000;-69
2022/11/19 08:22:13;;;;;;;;;;;21.80;97.40;;;;;;5019268;28;20043;-69
2022/11/19 08:24:39;;;;;;;;;;;21.80;97.20;;;;;;5022008;28;19922;-70
2022/11/19 08:27:06;;;;;;;;;;;21.80;96.90;;;;;;5017844;28;19963;-79
2022/11/19 08:29:33;;;;;;;;;;;21.70;96.90;;;;;;5019422;28;20008;-70
2022/11/19 08:31:59;;;;;;;;;;;21.70;97.20;;;;;;5014775;28;20357;-71
2022/11/19 08:34:26;;;;;;;;;;;21.80;97.00;;;;;;5019920;28;19909;-70
2022/11/19 08:36:52;;;;;;;;;;;21.80;97.00;;;;;;5016104;28;19917;-74
2022/11/19 08:39:19;;;;;;;;;;;21.70;97.00;;;;;;5005743;28;19968;-70
2022/11/19 08:44:30;;;;;;;;;;;21.70;97.90;;;;;;5016348;28;19936;-73
2022/11/19 08:46:57;;;;;;;;;;;21.70;97.80;;;;;;5017737;28;19916;-70
2022/11/19 08:49:23;;;;;;;;;;;21.70;98.10;;;;;;5031028;28;20321;-76
2022/11/19 08:51:50;;;;;;;;;;;21.70;98.10;;;;;;5025456;28;19914;-70
2022/11/19 08:54:17;;;;;;;;;;;21.70;98.20;;;;;;5019129;28;20011;-69
2022/11/19 08:56:44;;;;;;;;;;;21.70;98.20;;;;;;5016810;28;20174;-72
2022/11/19 08:59:11;;;;;;;;;;;21.80;98.20;;;;;;5015653;28;19909;-68
2022/11/19 09:01:38;;;;;;;;;;;21.70;98.40;;;;;;5018379;28;19913;-68
2022/11/19 09:04:05;;;;;;;;;;;21.70;98.30;;;;;;5014785;28;19956;-72
2022/11/19 09:06:34;;;;;;;;;;;21.80;98.50;;;;;;5017446;28;19920;-69
2022/11/19 09:09:02;;;;;;;;;;;21.70;98.60;;;;;;5015823;28;20012;-73
2022/11/19 09:11:28;;;;;;;;;;;21.70;98.60;;;;;;5020623;28;19913;-69
2022/11/19 09:13:56;;;;;;;;;;;21.70;98.60;;;;;;5016029;28;19913;-69
2022/11/19 09:16:23;;;;;;;;;;;21.70;98.80;;;;;;5020421;28;19920;-70
2022/11/19 09:18:50;;;;;;;;;;;21.70;98.60;;;;;;5017794;28;19921;-72
2022/11/19 09:21:16;;;;;;;;;;;21.70;98.30;;;;;;5018364;28;19944;-70
2022/11/19 09:23:43;;;;;;;;;;;21.60;98.40;;;;;;5011703;28;19917;-70
2022/11/19 09:26:14;;;;;;;;;;;21.60;98.40;;;;;;5013870;28;19956;-72
2022/11/19 09:28:41;;;;;;;;;;;21.50;98.50;;;;;;5015831;28;19953;-73
2022/11/19 09:31:18;;;;;;;;;;;21.40;98.70;;;;;;5011857;28;19913;-71
2022/11/19 09:33:46;;;;;;;;;;;21.40;98.80;;;;;;5013536;28;19983;-71
2022/11/19 09:36:13;;;;;;;;;;;21.40;99.10;;;;;;5015581;28;19916;-72
2022/11/19 09:38:40;;;;;;;;;;;21.40;99.60;;;;;;5018149;28;20270;-73
2022/11/19 09:41:18;;;;;;;;;;;21.30;99.50;;;;;;5014003;28;20017;-77
2022/11/19 09:43:48;;;;;;;;;;;21.30;99.70;;;;;;5015395;28;19917;-75
2022/11/19 09:46:21;;;;;;;;;;;21.30;99.90;;;;;;5016219;28;19932;-70
2022/11/19 09:48:50;;;;;;;;;;;21.30;99.90;;;;;;5019092;28;19922;-75
2022/11/19 09:51:20;;;;;;;;;;;21.30;99.90;;;;;;5015367;28;19916;-70
2022/11/19 09:53:54;;;;;;;;;;;21.30;99.90;;;;;;5018824;28;19913;-71
2022/11/19 09:56:40;;;;;;;;;;;21.20;99.60;;;;;;4999219;28;19917;-72
2022/11/19 09:59:12;;;;;;;;;;;21.30;99.30;;;;;;5013961;28;19959;-72
2022/11/19 10:01:39;;;;;;;;;;;21.30;98.90;;;;;;5016352;28;19920;-72
2022/11/19 10:04:06;;;;;;;;;;;21.30;98.60;;;;;;5012337;28;20366;-76
2022/11/19 10:06:45;;;;;;;;;;;21.40;98.50;;;;;;5017414;28;19913;-76
2022/11/19 10:09:38;;;;;;;;;;;21.40;98.50;;;;;;5016873;28;19913;-72
2022/11/19 10:12:04;;;;;;;;;;;21.40;98.40;;;;;;5013702;28;19928;-71
2022/11/19 10:14:37;;;;;;;;;;;21.40;98.40;;;;;;5016727;28;20366;-77
2022/11/19 10:17:19;;;;;;;;;;;21.40;98.30;;;;;;5016066;28;19923;-73
2022/11/19 10:19:49;;;;;;;;;;;21.30;98.20;;;;;;5015241;28;19921;-70
2022/11/19 10:22:32;;;;;;;;;;;21.40;98.10;;;;;;5013736;28;20368;-72
2022/11/19 10:25:04;;;;;;;;;;;21.50;98.20;;;;;;5018107;28;19963;-74
2022/11/19 10:27:41;;;;;;;;;;;21.40;98.00;;;;;;5014988;28;19921;-78
2022/11/19 10:30:21;;;;;;;;;;;21.50;98.00;;;;;;5010070;28;20345;-76
2022/11/19 10:32:51;;;;;;;;;;;21.50;98.00;;;;;;5017349;28;19967;-74
2022/11/19 10:35:20;;;;;;;;;;;21.50;98.10;;;;;;5015859;28;19952;-76
2022/11/19 10:37:58;;;;;;;;;;;21.50;98.20;;;;;;5015122;28;19913;-75
2022/11/19 10:40:27;;;;;;;;;;;21.50;98.40;;;;;;5015287;28;19917;-72
2022/11/19 10:42:56;;;;;;;;;;;21.50;98.70;;;;;;5015139;28;19963;-75
2022/11/19 10:45:25;;;;;;;;;;;21.50;98.90;;;;;;5013376;28;19913;-75
2022/11/19 10:48:02;;;;;;;;;;;21.50;99.00;;;;;;5018531;28;20381;-76
2022/11/19 10:50:29;;;;;;;;;;;21.50;99.30;;;;;;5014679;28;20048;-78
2022/11/19 10:52:59;;;;;;;;;;;21.50;99.50;;;;;;5018444;28;19912;-74
2022/11/19 10:55:28;;;;;;;;;;;21.40;99.70;;;;;;5013631;28;20408;-74
2022/11/19 10:58:18;;;;;;;;;;;21.40;99.90;;;;;;5017828;28;20787;-79
2022/11/19 11:00:45;;;;;;;;;;;21.30;99.90;;;;;;4999189;28;19925;-76
2022/11/19 11:03:26;;;;;;;;;;;21.30;99.90;;;;;;5016663;28;19913;-73
2022/11/19 11:05:54;;;;;;;;;;;21.30;99.90;;;;;;5009764;28;19956;-75
2022/11/19 11:08:21;;;;;;;;;;;21.20;99.90;;;;;;5022013;28;19921;-74
2022/11/19 11:10:49;;;;;;;;;;;21.30;99.90;;;;;;5015456;28;20581;-77
2022/11/19 11:16:07;;;;;;;;;;;21.30;99.90;;;;;;5016339;28;19919;-77
2022/11/19 11:18:34;;;;;;;;;;;21.20;99.90;;;;;;5015854;28;19924;-78
2022/11/19 11:21:01;;;;;;;;;;;21.30;99.90;;;;;;5015690;28;19914;-76
2022/11/19 11:23:29;;;;;;;;;;;21.30;99.90;;;;;;5016946;28;19910;-70
2022/11/19 11:25:59;;;;;;;;;;;21.30;99.90;;;;;;5017363;28;19944;-72
2022/11/19 11:28:26;;;;;;;;;;;21.30;99.90;;;;;;5017363;28;19932;-77
2022/11/19 11:30:57;;;;;;;;;;;21.30;99.90;;;;;;5005687;28;20289;-72
2022/11/19 11:33:24;;;;;;;;;;;21.30;99.90;;;;;;4997624;28;19971;-77
2022/11/19 11:36:01;;;;;;;;;;;21.30;99.90;;;;;;5013767;28;19967;-76
2022/11/19 11:38:31;;;;;;;;;;;21.30;99.90;;;;;;5012929;28;19913;-70
2022/11/19 11:41:03;;;;;;;;;;;21.40;99.90;;;;;;5014429;28;19921;-71
2022/11/19 11:43:32;;;;;;;;;;;21.30;99.90;;;;;;5011219;28;19925;-71
2022/11/19 11:46:01;;;;;;;;;;;21.30;99.90;;;;;;5017675;28;19913;-72
2022/11/19 11:48:32;;;;;;;;;;;21.30;99.90;;;;;;5016447;28;19952;-72
2022/11/19 11:50:59;;;;;;;;;;;21.40;99.90;;;;;;5017055;28;19928;-77
2022/11/19 11:53:32;;;;;;;;;;;21.30;99.90;;;;;;5004807;28;19931;-70
2022/11/19 11:56:00;;;;;;;;;;;21.40;99.90;;;;;;5020111;28;19913;-72
2022/11/19 11:58:29;;;;;;;;;;;21.40;99.90;;;;;;5018437;28;19913;-71
2022/11/19 12:01:18;;;;;;;;;;;21.40;99.90;;;;;;5020416;28;19996;-72
2022/11/19 12:03:55;;;;;;;;;;;21.30;99.90;;;;;;5003230;28;20381;-71
2022/11/19 12:06:24;;;;;;;;;;;21.30;99.90;;;;;;5019987;28;19955;-70
2022/11/19 12:08:59;;;;;;;;;;;21.30;99.90;;;;;;5016075;28;20436;-71
2022/11/19 12:11:26;;;;;;;;;;;21.30;99.90;;;;;;5018348;28;19916;-70
2022/11/19 12:13:58;;;;;;;;;;;21.30;99.90;;;;;;5018336;28;19913;-70
2022/11/19 12:16:45;;;;;;;;;;;21.30;99.90;;;;;;5019841;28;19952;-70
2022/11/19 12:19:11;;;;;;;;;;;21.30;99.90;;;;;;5007456;28;20806;-70
2022/11/19 12:21:53;;;;;;;;;;;21.30;99.90;;;;;;5018747;28;19916;-71
2022/11/19 12:24:35;;;;;;;;;;;21.40;99.90;;;;;;5019215;28;19928;-71
2022/11/19 12:27:05;;;;;;;;;;;21.40;99.90;;;;;;5001068;28;19932;-71
2022/11/19 12:29:49;;;;;;;;;;;21.30;99.90;;;;;;5018324;28;20490;-70
2022/11/19 12:32:25;;;;;;;;;;;21.30;99.90;;;;;;5030016;28;20114;-70
2022/11/19 12:35:01;;;;;;;;;;;21.30;99.90;;;;;;5020058;28;19916;-70
2022/11/19 12:37:39;;;;;;;;;;;21.40;99.90;;;;;;5018857;28;19909;-70
2022/11/19 12:40:09;;;;;;;;;;;21.40;99.90;;;;;;5002331;28;19924;-69
2022/11/19 12:42:36;;;;;;;;;;;21.40;99.90;;;;;;5019186;28;19913;-69
2022/11/19 12:45:05;;;;;;;;;;;21.30;99.90;;;;;;5014814;28;19913;-70
2022/11/19 12:47:44;;;;;;;;;;;21.40;99.90;;;;;;5017920;28;19925;-71
2022/11/19 12:50:13;;;;;;;;;;;21.30;99.90;;;;;;5007693;28;19929;-71
2022/11/19 12:52:53;;;;;;;;;;;21.30;99.90;;;;;;4986124;22;19934;-69
2022/11/19 12:55:32;;;;;;;;;;;21.30;99.90;;;;;;4957098;28;19993;-69
2022/11/19 12:57:58;;;;;;;;;;;21.30;99.90;;;;;;4953892;28;20020;-69
2022/11/19 13:00:27;;;;;;;;;;;21.30;99.90;;;;;;4957623;28;19910;-69
2022/11/19 13:02:54;;;;;;;;;;;21.30;99.90;;;;;;4957989;28;19910;-69
2022/11/19 13:05:32;;;;;;;;;;;21.20;99.90;;;;;;4956898;28;19916;-69
2022/11/19 13:08:17;;;;;;;;;;;21.20;99.90;;;;;;4954921;28;19918;-69
2022/11/19 13:10:47;;;;;;;;;;;21.10;99.90;;;;;;4956605;28;19929;-69
2022/11/19 13:13:16;;;;;;;;;;;21.10;99.90;;;;;;4951323;28;19910;-71
2022/11/19 13:15:45;;;;;;;;;;;21.10;99.90;;;;;;4939227;28;19911;-70
2022/11/19 13:18:17;;;;;;;;;;;21.00;99.90;;;;;;4952934;28;19910;-70
2022/11/19 13:20:53;;;;;;;;;;;21.00;99.90;;;;;;4944943;28;19915;-69
2022/11/19 13:23:25;;;;;;;;;;;20.90;99.90;;;;;;4946516;28;19911;-71
2022/11/19 13:26:04;;;;;;;;;;;20.90;99.90;;;;;;4958293;28;20023;-68
2022/11/19 13:28:41;;;;;;;;;;;20.90;99.90;;;;;;4959259;28;19924;-70
2022/11/19 13:31:23;;;;;;;;;;;20.80;99.90;;;;;;4956973;28;19963;-69
2022/11/19 13:33:52;;;;;;;;;;;20.90;99.90;;;;;;4957978;28;20015;-68
2022/11/19 13:36:28;;;;;;;;;;;20.80;99.90;;;;;;4957686;28;19918;-69
2022/11/19 13:39:00;;;;;;;;;;;20.70;99.90;;;;;;4957642;28;20390;-68
2022/11/19 13:44:37;;;;;;;;;;;20.70;99.90;;;;;;4941074;28;19914;-69
2022/11/19 13:44:40;;;;;;;;;;;20.70;99.90;;;;;;4938690;28;19918;-69
2022/11/19 13:47:09;;;;;;;;;;;20.60;99.90;;;;;;4937984;28;19918;-69
2022/11/19 13:49:38;;;;;;;;;;;20.50;99.90;;;;;;4921278;28;20434;-68
2022/11/19 13:52:05;;;;;;;;;;;20.50;99.90;;;;;;4917967;28;20059;-69
2022/11/19 13:54:35;;;;;;;;;;;20.40;99.90;;;;;;4919758;29;19910;-69
2022/11/19 13:57:03;;;;;;;;;;;20.40;99.90;;;;;;4925215;29;19910;-69
2022/11/19 13:59:35;;;;;;;;;;;20.30;99.90;;;;;;4938627;29;19911;-69
2022/11/19 14:02:07;;;;;;;;;;;20.20;99.90;;;;;;4938594;28;19914;-69
2022/11/19 14:05:02;;;;;;;;;;;20.20;99.90;;;;;;4938407;28;19911;-69
2022/11/19 14:07:36;;;;;;;;;;;20.20;99.90;;;;;;4938538;28;19922;-68
2022/11/19 14:10:05;;;;;;;;;;;20.10;99.90;;;;;;4938458;28;20449;-69
2022/11/19 14:12:32;;;;;;;;;;;20.10;99.90;;;;;;4938211;28;19911;-68
2022/11/19 14:26:45;;;;;;;;;;;20.10;99.90;;;;;;4938044;28;19921;-68
2022/11/19 14:29:18;;;;;;;;;;;20.20;99.90;;;;;;4938126;28;19967;-69
2022/11/19 14:32:01;;;;;;;;;;;20.20;99.90;;;;;;4926514;28;19911;-70
2022/11/19 14:34:32;;;;;;;;;;;20.30;99.90;;;;;;4919055;29;20041;-67
2022/11/19 14:37:02;;;;;;;;;;;20.30;99.90;;;;;;4919172;29;20000;-67
2022/11/19 14:39:38;;;;;;;;;;;20.30;99.90;;;;;;4918774;29;19911;-68
2022/11/19 14:42:11;;;;;;;;;;;20.40;99.90;;;;;;4918811;29;20005;-69
2022/11/19 14:44:37;;;;;;;;;;;20.50;99.90;;;;;;4918886;29;20004;-67
2022/11/19 14:47:22;;;;;;;;;;;20.50;99.90;;;;;;4918493;29;19965;-70
2022/11/19 14:49:54;;;;;;;;;;;20.50;99.90;;;;;;4918664;29;19919;-69
2022/11/19 14:52:23;;;;;;;;;;;20.50;99.90;;;;;;4939073;28;19929;-68
2022/11/19 14:54:55;;;;;;;;;;;20.50;99.90;;;;;;4956757;28;19921;-69
2022/11/19 14:57:33;;;;;;;;;;;20.50;99.90;;;;;;4956704;28;20267;-67
2022/11/19 15:00:01;;;;;;;;;;;20.50;99.90;;;;;;4957650;28;19910;-69